sensor_id;sensor_type;location;lat;lon;timestamp;P1;durP1;ratioP1;P2;durP2;ratioP2
63203;SDS011;49297;43.210;27.914;2022-08-19T00:01:40;13.10;;;11.90;;
63203;SDS011;49297;43.210;27.914;2022-08-19T00:04:08;13.80;;;12.50;;
63203;SDS011;49297;43.210;27.914;2022-08-19T00:06:39;15.30;;;13.68;;
63203;SDS011;49297;43.210;27.914;2022-08-19T00:09:07;18.13;;;12.68;;
63203;SDS011;49297;43.210;27.914;2022-08-19T00:11:37;15.57;;;13.93;;
63203;SDS011;49297;43.210;27.914;2022-08-19T00:14:07;13.73;;;12.52;;
63203;SDS011;49297;43.210;27.914;2022-08-19T00:16:35;12.75;;;11.45;;
63203;SDS011;49297;43.210;27.914;2022-08-19T00:19:02;19.85;;;12.93;;
63203;SDS011;49297;43.210;27.914;2022-08-19T00:21:29;11.98;;;10.85;;
63203;SDS011;49297;43.210;27.914;2022-08-19T00:23:55;12.85;;;11.75;;
63203;SDS011;49297;43.210;27.914;2022-08-19T00:26:23;13.85;;;12.65;;
63203;SDS011;49297;43.210;27.914;2022-08-19T00:28:50;15.73;;;12.57;;
63203;SDS011;49297;43.210;27.914;2022-08-19T00:31:16;14.55;;;13.15;;
63203;SDS011;49297;43.210;27.914;2022-08-19T00:33:42;13.02;;;11.90;;
63203;SDS011;49297;43.210;27.914;2022-08-19T00:36:10;12.50;;;11.25;;
63203;SDS011;49297;43.210;27.914;2022-08-19T00:38:37;13.65;;;12.45;;
63203;SDS011;49297;43.210;27.914;2022-08-19T00:41:18;12.88;;;11.68;;
63203;SDS011;49297;43.210;27.914;2022-08-19T00:43:58;12.38;;;11.10;;
63203;SDS011;49297;43.210;27.914;2022-08-19T00:46:29;14.35;;;13.13;;
63203;SDS011;49297;43.210;27.914;2022-08-19T00:48:56;12.35;;;11.18;;
63203;SDS011;49297;43.210;27.914;2022-08-19T00:51:24;13.57;;;12.13;;
63203;SDS011;49297;43.210;27.914;2022-08-19T00:53:53;16.48;;;11.38;;
63203;SDS011;49297;43.210;27.914;2022-08-19T00:56:20;12.73;;;10.10;;
63203;SDS011;49297;43.210;27.914;2022-08-19T00:58:46;11.13;;;10.00;;
63203;SDS011;49297;43.210;27.914;2022-08-19T01:01:11;10.75;;;9.65;;
63203;SDS011;49297;43.210;27.914;2022-08-19T01:03:39;11.77;;;9.75;;
63203;SDS011;49297;43.210;27.914;2022-08-19T01:06:05;12.85;;;11.65;;
63203;SDS011;49297;43.210;27.914;2022-08-19T01:08:31;11.65;;;10.60;;
63203;SDS011;49297;43.210;27.914;2022-08-19T01:10:58;12.82;;;11.25;;
63203;SDS011;49297;43.210;27.914;2022-08-19T01:13:25;13.38;;;11.93;;
63203;SDS011;49297;43.210;27.914;2022-08-19T01:15:58;12.32;;;11.20;;
63203;SDS011;49297;43.210;27.914;2022-08-19T01:18:27;11.57;;;10.52;;
63203;SDS011;49297;43.210;27.914;2022-08-19T01:20:57;12.57;;;11.40;;
63203;SDS011;49297;43.210;27.914;2022-08-19T01:23:28;13.60;;;12.18;;
63203;SDS011;49297;43.210;27.914;2022-08-19T01:26:13;12.45;;;11.40;;
63203;SDS011;49297;43.210;27.914;2022-08-19T01:28:44;18.35;;;12.07;;
63203;SDS011;49297;43.210;27.914;2022-08-19T01:31:13;14.05;;;12.85;;
63203;SDS011;49297;43.210;27.914;2022-08-19T01:33:42;14.65;;;13.35;;
63203;SDS011;49297;43.210;27.914;2022-08-19T01:36:09;14.68;;;13.30;;
63203;SDS011;49297;43.210;27.914;2022-08-19T01:38:38;15.45;;;13.98;;
63203;SDS011;49297;43.210;27.914;2022-08-19T01:41:09;17.77;;;13.15;;
63203;SDS011;49297;43.210;27.914;2022-08-19T01:43:36;15.55;;;14.02;;
63203;SDS011;49297;43.210;27.914;2022-08-19T01:46:03;17.48;;;15.25;;
63203;SDS011;49297;43.210;27.914;2022-08-19T01:48:39;15.68;;;14.07;;
63203;SDS011;49297;43.210;27.914;2022-08-19T01:51:07;16.40;;;14.77;;
63203;SDS011;49297;43.210;27.914;2022-08-19T01:53:34;16.83;;;14.73;;
63203;SDS011;49297;43.210;27.914;2022-08-19T01:56:01;17.38;;;15.68;;
63203;SDS011;49297;43.210;27.914;2022-08-19T01:58:29;18.17;;;13.75;;
63203;SDS011;49297;43.210;27.914;2022-08-19T02:01:06;15.43;;;13.80;;
63203;SDS011;49297;43.210;27.914;2022-08-19T02:03:33;15.35;;;13.07;;
63203;SDS011;49297;43.210;27.914;2022-08-19T02:06:03;25.10;;;14.20;;
63203;SDS011;49297;43.210;27.914;2022-08-19T02:08:32;18.85;;;13.90;;
63203;SDS011;49297;43.210;27.914;2022-08-19T02:11:00;15.98;;;14.55;;
63203;SDS011;49297;43.210;27.914;2022-08-19T02:13:26;13.15;;;11.85;;
63203;SDS011;49297;43.210;27.914;2022-08-19T02:15:51;18.33;;;12.75;;
63203;SDS011;49297;43.210;27.914;2022-08-19T02:18:17;12.90;;;11.00;;
63203;SDS011;49297;43.210;27.914;2022-08-19T02:20:44;11.15;;;10.05;;
63203;SDS011;49297;43.210;27.914;2022-08-19T02:23:12;12.82;;;11.50;;
63203;SDS011;49297;43.210;27.914;2022-08-19T02:25:39;11.48;;;10.48;;
63203;SDS011;49297;43.210;27.914;2022-08-19T02:28:06;11.00;;;9.90;;
63203;SDS011;49297;43.210;27.914;2022-08-19T02:30:32;13.63;;;12.45;;
63203;SDS011;49297;43.210;27.914;2022-08-19T02:32:58;13.05;;;11.70;;
63203;SDS011;49297;43.210;27.914;2022-08-19T02:35:24;20.58;;;12.68;;
63203;SDS011;49297;43.210;27.914;2022-08-19T02:37:51;15.80;;;12.77;;
63203;SDS011;49297;43.210;27.914;2022-08-19T02:40:37;15.95;;;14.57;;
63203;SDS011;49297;43.210;27.914;2022-08-19T02:43:08;14.55;;;13.25;;
63203;SDS011;49297;43.210;27.914;2022-08-19T02:45:35;15.30;;;13.73;;
63203;SDS011;49297;43.210;27.914;2022-08-19T02:48:02;15.30;;;13.80;;
63203;SDS011;49297;43.210;27.914;2022-08-19T02:50:30;16.50;;;13.98;;
63203;SDS011;49297;43.210;27.914;2022-08-19T02:52:56;16.80;;;14.73;;
63203;SDS011;49297;43.210;27.914;2022-08-19T02:55:22;15.88;;;14.30;;
63203;SDS011;49297;43.210;27.914;2022-08-19T02:57:49;20.35;;;16.05;;
63203;SDS011;49297;43.210;27.914;2022-08-19T03:00:15;18.45;;;16.55;;
63203;SDS011;49297;43.210;27.914;2022-08-19T03:02:41;20.73;;;17.00;;
63203;SDS011;49297;43.210;27.914;2022-08-19T03:05:08;19.45;;;16.85;;
63203;SDS011;49297;43.210;27.914;2022-08-19T03:07:35;21.88;;;18.73;;
63203;SDS011;49297;43.210;27.914;2022-08-19T03:10:02;19.40;;;17.55;;
63203;SDS011;49297;43.210;27.914;2022-08-19T03:12:29;19.48;;;17.55;;
63203;SDS011;49297;43.210;27.914;2022-08-19T03:14:56;20.48;;;18.67;;
63203;SDS011;49297;43.210;27.914;2022-08-19T03:17:21;23.83;;;17.55;;
63203;SDS011;49297;43.210;27.914;2022-08-19T03:19:47;17.83;;;16.33;;
63203;SDS011;49297;43.210;27.914;2022-08-19T03:22:13;15.70;;;14.13;;
63203;SDS011;49297;43.210;27.914;2022-08-19T03:24:39;16.90;;;15.55;;
63203;SDS011;49297;43.210;27.914;2022-08-19T03:27:05;15.90;;;14.20;;
63203;SDS011;49297;43.210;27.914;2022-08-19T03:29:31;20.33;;;15.50;;
63203;SDS011;49297;43.210;27.914;2022-08-19T03:31:59;18.58;;;15.55;;
63203;SDS011;49297;43.210;27.914;2022-08-19T03:34:28;15.98;;;14.50;;
63203;SDS011;49297;43.210;27.914;2022-08-19T03:36:57;18.65;;;15.85;;
63203;SDS011;49297;43.210;27.914;2022-08-19T03:39:25;13.85;;;12.52;;
63203;SDS011;49297;43.210;27.914;2022-08-19T03:41:51;16.63;;;14.00;;
63203;SDS011;49297;43.210;27.914;2022-08-19T03:44:23;15.18;;;13.77;;
63203;SDS011;49297;43.210;27.914;2022-08-19T03:46:54;14.68;;;13.32;;
63203;SDS011;49297;43.210;27.914;2022-08-19T03:49:23;15.10;;;13.80;;
63203;SDS011;49297;43.210;27.914;2022-08-19T03:51:52;15.43;;;13.98;;
63203;SDS011;49297;43.210;27.914;2022-08-19T03:54:20;16.15;;;12.00;;
63203;SDS011;49297;43.210;27.914;2022-08-19T03:56:48;15.32;;;13.82;;
63203;SDS011;49297;43.210;27.914;2022-08-19T03:59:20;21.48;;;19.30;;
63203;SDS011;49297;43.210;27.914;2022-08-19T04:01:51;15.45;;;13.52;;
63203;SDS011;49297;43.210;27.914;2022-08-19T04:04:18;15.13;;;12.20;;
63203;SDS011;49297;43.210;27.914;2022-08-19T04:06:44;12.80;;;11.70;;
63203;SDS011;49297;43.210;27.914;2022-08-19T04:09:12;14.77;;;13.43;;
63203;SDS011;49297;43.210;27.914;2022-08-19T04:11:40;14.50;;;12.93;;
63203;SDS011;49297;43.210;27.914;2022-08-19T04:14:13;13.55;;;12.25;;
63203;SDS011;49297;43.210;27.914;2022-08-19T04:16:44;15.38;;;12.80;;
63203;SDS011;49297;43.210;27.914;2022-08-19T04:19:12;14.25;;;12.85;;
63203;SDS011;49297;43.210;27.914;2022-08-19T04:21:42;19.73;;;15.63;;
63203;SDS011;49297;43.210;27.914;2022-08-19T04:24:10;17.73;;;13.00;;
63203;SDS011;49297;43.210;27.914;2022-08-19T04:26:37;21.58;;;14.40;;
63203;SDS011;49297;43.210;27.914;2022-08-19T04:29:05;25.67;;;16.00;;
63203;SDS011;49297;43.210;27.914;2022-08-19T04:31:33;14.88;;;13.57;;
63203;SDS011;49297;43.210;27.914;2022-08-19T04:34:05;25.08;;;14.40;;
63203;SDS011;49297;43.210;27.914;2022-08-19T04:36:36;15.30;;;14.05;;
63203;SDS011;49297;43.210;27.914;2022-08-19T04:39:05;16.27;;;14.90;;
63203;SDS011;49297;43.210;27.914;2022-08-19T04:41:33;15.70;;;14.13;;
63203;SDS011;49297;43.210;27.914;2022-08-19T04:44:20;19.00;;;15.75;;
63203;SDS011;49297;43.210;27.914;2022-08-19T04:46:49;14.82;;;13.63;;
63203;SDS011;49297;43.210;27.914;2022-08-19T04:49:18;24.17;;;16.23;;
63203;SDS011;49297;43.210;27.914;2022-08-19T04:51:47;19.63;;;17.52;;
63203;SDS011;49297;43.210;27.914;2022-08-19T04:54:15;16.13;;;14.48;;
63203;SDS011;49297;43.210;27.914;2022-08-19T04:56:42;15.00;;;13.50;;
63203;SDS011;49297;43.210;27.914;2022-08-19T04:59:09;67.78;;;19.02;;
63203;SDS011;49297;43.210;27.914;2022-08-19T05:01:37;20.90;;;13.57;;
63203;SDS011;49297;43.210;27.914;2022-08-19T05:04:03;15.68;;;12.63;;
63203;SDS011;49297;43.210;27.914;2022-08-19T05:06:32;17.52;;;15.73;;
63203;SDS011;49297;43.210;27.914;2022-08-19T05:09:00;17.20;;;14.90;;
63203;SDS011;49297;43.210;27.914;2022-08-19T05:11:28;17.40;;;15.63;;
63203;SDS011;49297;43.210;27.914;2022-08-19T05:13:56;16.88;;;15.13;;
63203;SDS011;49297;43.210;27.914;2022-08-19T05:16:22;16.00;;;14.50;;
63203;SDS011;49297;43.210;27.914;2022-08-19T05:18:50;14.32;;;12.82;;
63203;SDS011;49297;43.210;27.914;2022-08-19T05:21:34;17.35;;;14.80;;
63203;SDS011;49297;43.210;27.914;2022-08-19T05:24:19;14.82;;;13.45;;
63203;SDS011;49297;43.210;27.914;2022-08-19T05:26:47;14.60;;;11.95;;
63203;SDS011;49297;43.210;27.914;2022-08-19T05:29:16;14.38;;;12.90;;
63203;SDS011;49297;43.210;27.914;2022-08-19T05:31:45;14.30;;;11.27;;
63203;SDS011;49297;43.210;27.914;2022-08-19T05:34:12;12.90;;;10.73;;
63203;SDS011;49297;43.210;27.914;2022-08-19T05:36:42;12.50;;;11.30;;
63203;SDS011;49297;43.210;27.914;2022-08-19T05:39:15;10.68;;;9.68;;
63203;SDS011;49297;43.210;27.914;2022-08-19T05:41:43;11.00;;;9.95;;
63203;SDS011;49297;43.210;27.914;2022-08-19T05:44:11;12.18;;;9.43;;
63203;SDS011;49297;43.210;27.914;2022-08-19T05:46:38;12.13;;;10.85;;
63203;SDS011;49297;43.210;27.914;2022-08-19T05:49:05;10.05;;;9.15;;
63203;SDS011;49297;43.210;27.914;2022-08-19T05:51:33;10.00;;;9.00;;
63203;SDS011;49297;43.210;27.914;2022-08-19T05:54:01;16.98;;;9.85;;
63203;SDS011;49297;43.210;27.914;2022-08-19T05:56:29;10.93;;;9.95;;
63203;SDS011;49297;43.210;27.914;2022-08-19T05:58:58;12.30;;;9.57;;
63203;SDS011;49297;43.210;27.914;2022-08-19T06:01:25;15.55;;;10.70;;
63203;SDS011;49297;43.210;27.914;2022-08-19T06:03:51;14.82;;;9.90;;
63203;SDS011;49297;43.210;27.914;2022-08-19T06:06:17;9.55;;;8.52;;
63203;SDS011;49297;43.210;27.914;2022-08-19T06:08:44;10.10;;;9.07;;
63203;SDS011;49297;43.210;27.914;2022-08-19T06:14:18;10.43;;;9.38;;
63203;SDS011;49297;43.210;27.914;2022-08-19T06:16:48;11.52;;;9.20;;
63203;SDS011;49297;43.210;27.914;2022-08-19T06:19:21;9.65;;;8.68;;
63203;SDS011;49297;43.210;27.914;2022-08-19T06:21:50;10.45;;;9.55;;
63203;SDS011;49297;43.210;27.914;2022-08-19T06:24:21;11.20;;;8.98;;
63203;SDS011;49297;43.210;27.914;2022-08-19T06:26:50;9.17;;;8.33;;
63203;SDS011;49297;43.210;27.914;2022-08-19T06:29:18;11.27;;;9.27;;
63203;SDS011;49297;43.210;27.914;2022-08-19T06:31:47;9.27;;;8.38;;
63203;SDS011;49297;43.210;27.914;2022-08-19T06:34:15;10.10;;;8.57;;
63203;SDS011;49297;43.210;27.914;2022-08-19T06:36:42;9.75;;;8.85;;
63203;SDS011;49297;43.210;27.914;2022-08-19T06:39:12;11.07;;;8.70;;
63203;SDS011;49297;43.210;27.914;2022-08-19T06:41:42;9.63;;;8.63;;
63203;SDS011;49297;43.210;27.914;2022-08-19T06:44:10;10.00;;;9.10;;
63203;SDS011;49297;43.210;27.914;2022-08-19T06:46:37;10.20;;;9.20;;
63203;SDS011;49297;43.210;27.914;2022-08-19T06:49:05;10.80;;;7.75;;
63203;SDS011;49297;43.210;27.914;2022-08-19T06:51:35;13.55;;;8.52;;
63203;SDS011;49297;43.210;27.914;2022-08-19T06:54:02;9.68;;;8.85;;
63203;SDS011;49297;43.210;27.914;2022-08-19T06:56:29;9.82;;;8.52;;
63203;SDS011;49297;43.210;27.914;2022-08-19T06:59:02;8.95;;;8.10;;
63203;SDS011;49297;43.210;27.914;2022-08-19T07:04:20;9.65;;;8.68;;
63203;SDS011;49297;43.210;27.914;2022-08-19T07:06:50;11.27;;;8.88;;
63203;SDS011;49297;43.210;27.914;2022-08-19T07:09:21;9.30;;;8.52;;
63203;SDS011;49297;43.210;27.914;2022-08-19T07:11:49;8.40;;;7.60;;
63203;SDS011;49297;43.210;27.914;2022-08-19T07:14:27;7.43;;;6.75;;
63203;SDS011;49297;43.210;27.914;2022-08-19T07:16:55;9.32;;;8.32;;
63203;SDS011;49297;43.210;27.914;2022-08-19T07:19:24;10.18;;;9.13;;
63203;SDS011;49297;43.210;27.914;2022-08-19T07:21:52;12.02;;;8.55;;
63203;SDS011;49297;43.210;27.914;2022-08-19T07:24:23;10.77;;;9.32;;
63203;SDS011;49297;43.210;27.914;2022-08-19T07:29:30;12.77;;;9.57;;
63203;SDS011;49297;43.210;27.914;2022-08-19T07:31:59;10.88;;;8.77;;
63203;SDS011;49297;43.210;27.914;2022-08-19T07:34:28;8.23;;;7.53;;
63203;SDS011;49297;43.210;27.914;2022-08-19T07:36:55;8.60;;;7.90;;
63203;SDS011;49297;43.210;27.914;2022-08-19T07:39:24;7.68;;;6.97;;
63203;SDS011;49297;43.210;27.914;2022-08-19T07:41:56;9.07;;;8.15;;
63203;SDS011;49297;43.210;27.914;2022-08-19T07:44:24;9.95;;;8.95;;
63203;SDS011;49297;43.210;27.914;2022-08-19T07:46:52;9.68;;;8.70;;
63203;SDS011;49297;43.210;27.914;2022-08-19T07:49:21;9.88;;;7.75;;
63203;SDS011;49297;43.210;27.914;2022-08-19T07:51:49;10.07;;;9.07;;
63203;SDS011;49297;43.210;27.914;2022-08-19T07:54:19;11.35;;;7.50;;
63203;SDS011;49297;43.210;27.914;2022-08-19T07:56:45;8.20;;;7.40;;
63203;SDS011;49297;43.210;27.914;2022-08-19T07:59:11;12.02;;;8.23;;
63203;SDS011;49297;43.210;27.914;2022-08-19T08:01:38;12.18;;;8.07;;
63203;SDS011;49297;43.210;27.914;2022-08-19T08:04:05;12.52;;;8.57;;
63203;SDS011;49297;43.210;27.914;2022-08-19T08:06:51;11.63;;;8.27;;
63203;SDS011;49297;43.210;27.914;2022-08-19T08:09:37;13.45;;;7.95;;
63203;SDS011;49297;43.210;27.914;2022-08-19T08:12:15;9.63;;;7.70;;
63203;SDS011;49297;43.210;27.914;2022-08-19T08:14:44;8.73;;;7.93;;
63203;SDS011;49297;43.210;27.914;2022-08-19T08:17:14;12.82;;;7.32;;
63203;SDS011;49297;43.210;27.914;2022-08-19T08:19:42;10.30;;;7.05;;
63203;SDS011;49297;43.210;27.914;2022-08-19T08:22:10;9.13;;;6.75;;
63203;SDS011;49297;43.210;27.914;2022-08-19T08:27:37;9.60;;;7.35;;
63203;SDS011;49297;43.210;27.914;2022-08-19T08:30:11;9.90;;;7.18;;
63203;SDS011;49297;43.210;27.914;2022-08-19T08:32:40;10.02;;;8.07;;
63203;SDS011;49297;43.210;27.914;2022-08-19T08:35:08;8.13;;;6.32;;
63203;SDS011;49297;43.210;27.914;2022-08-19T08:37:39;10.57;;;7.20;;
63203;SDS011;49297;43.210;27.914;2022-08-19T08:40:07;11.23;;;5.55;;
63203;SDS011;49297;43.210;27.914;2022-08-19T08:42:44;11.35;;;7.45;;
63203;SDS011;49297;43.210;27.914;2022-08-19T08:45:34;9.43;;;7.70;;
63203;SDS011;49297;43.210;27.914;2022-08-19T08:48:13;16.27;;;7.30;;
63203;SDS011;49297;43.210;27.914;2022-08-19T08:50:46;10.98;;;6.57;;
63203;SDS011;49297;43.210;27.914;2022-08-19T08:53:16;7.18;;;6.47;;
63203;SDS011;49297;43.210;27.914;2022-08-19T08:55:43;7.82;;;6.68;;
63203;SDS011;49297;43.210;27.914;2022-08-19T08:58:12;12.50;;;8.25;;
63203;SDS011;49297;43.210;27.914;2022-08-19T09:00:45;16.70;;;8.07;;
63203;SDS011;49297;43.210;27.914;2022-08-19T09:03:21;10.73;;;7.45;;
63203;SDS011;49297;43.210;27.914;2022-08-19T09:06:01;8.00;;;7.22;;
63203;SDS011;49297;43.210;27.914;2022-08-19T09:14:36;8.13;;;5.82;;
63203;SDS011;49297;43.210;27.914;2022-08-19T09:17:19;6.43;;;5.80;;
63203;SDS011;49297;43.210;27.914;2022-08-19T09:22:42;7.07;;;6.30;;
63203;SDS011;49297;43.210;27.914;2022-08-19T09:25:13;10.13;;;6.00;;
63203;SDS011;49297;43.210;27.914;2022-08-19T09:27:41;12.38;;;8.23;;
63203;SDS011;49297;43.210;27.914;2022-08-19T09:30:09;7.05;;;5.78;;
63203;SDS011;49297;43.210;27.914;2022-08-19T09:32:38;16.27;;;8.48;;
63203;SDS011;49297;43.210;27.914;2022-08-19T09:35:07;9.07;;;7.57;;
63203;SDS011;49297;43.210;27.914;2022-08-19T09:37:33;8.65;;;5.40;;
63203;SDS011;49297;43.210;27.914;2022-08-19T09:39:59;7.68;;;6.72;;
63203;SDS011;49297;43.210;27.914;2022-08-19T09:42:24;8.85;;;7.22;;
63203;SDS011;49297;43.210;27.914;2022-08-19T09:44:50;8.82;;;6.55;;
63203;SDS011;49297;43.210;27.914;2022-08-19T09:47:16;8.77;;;6.78;;
63203;SDS011;49297;43.210;27.914;2022-08-19T09:49:42;8.15;;;6.47;;
63203;SDS011;49297;43.210;27.914;2022-08-19T09:52:09;7.65;;;6.13;;
63203;SDS011;49297;43.210;27.914;2022-08-19T09:54:37;11.93;;;7.15;;
63203;SDS011;49297;43.210;27.914;2022-08-19T09:57:04;9.13;;;8.20;;
63203;SDS011;49297;43.210;27.914;2022-08-19T09:59:30;7.50;;;6.63;;
63203;SDS011;49297;43.210;27.914;2022-08-19T10:01:56;7.00;;;6.30;;
63203;SDS011;49297;43.210;27.914;2022-08-19T10:04:23;11.13;;;8.88;;
63203;SDS011;49297;43.210;27.914;2022-08-19T10:07:09;7.05;;;6.15;;
63203;SDS011;49297;43.210;27.914;2022-08-19T10:09:35;8.52;;;7.50;;
63203;SDS011;49297;43.210;27.914;2022-08-19T10:12:02;18.80;;;7.10;;
63203;SDS011;49297;43.210;27.914;2022-08-19T10:14:29;6.53;;;5.97;;
63203;SDS011;49297;43.210;27.914;2022-08-19T10:16:56;9.48;;;7.10;;
63203;SDS011;49297;43.210;27.914;2022-08-19T10:19:22;9.60;;;6.65;;
63203;SDS011;49297;43.210;27.914;2022-08-19T10:21:48;9.73;;;6.32;;
63203;SDS011;49297;43.210;27.914;2022-08-19T10:24:14;8.25;;;7.45;;
63203;SDS011;49297;43.210;27.914;2022-08-19T10:26:40;17.40;;;7.30;;
63203;SDS011;49297;43.210;27.914;2022-08-19T10:29:12;7.80;;;6.85;;
63203;SDS011;49297;43.210;27.914;2022-08-19T10:31:41;6.70;;;6.10;;
63203;SDS011;49297;43.210;27.914;2022-08-19T10:34:08;7.63;;;6.25;;
63203;SDS011;49297;43.210;27.914;2022-08-19T10:36:37;9.95;;;6.00;;
63203;SDS011;49297;43.210;27.914;2022-08-19T10:39:06;12.27;;;7.13;;
63203;SDS011;49297;43.210;27.914;2022-08-19T10:41:46;8.38;;;6.05;;
63203;SDS011;49297;43.210;27.914;2022-08-19T10:44:13;11.23;;;6.25;;
63203;SDS011;49297;43.210;27.914;2022-08-19T10:46:42;6.75;;;5.65;;
63203;SDS011;49297;43.210;27.914;2022-08-19T10:49:12;6.15;;;5.65;;
63203;SDS011;49297;43.210;27.914;2022-08-19T10:51:39;9.10;;;5.60;;
63203;SDS011;49297;43.210;27.914;2022-08-19T10:54:24;6.72;;;5.65;;
63203;SDS011;49297;43.210;27.914;2022-08-19T10:57:10;8.23;;;7.30;;
63203;SDS011;49297;43.210;27.914;2022-08-19T10:59:36;6.40;;;5.80;;
63203;SDS011;49297;43.210;27.914;2022-08-19T11:02:05;11.85;;;6.18;;
63203;SDS011;49297;43.210;27.914;2022-08-19T11:04:35;12.63;;;6.82;;
63203;SDS011;49297;43.210;27.914;2022-08-19T11:07:02;10.73;;;7.45;;
63203;SDS011;49297;43.210;27.914;2022-08-19T11:09:29;9.25;;;8.02;;
63203;SDS011;49297;43.210;27.914;2022-08-19T11:11:56;8.35;;;7.53;;
63203;SDS011;49297;43.210;27.914;2022-08-19T11:14:22;8.50;;;7.70;;
63203;SDS011;49297;43.210;27.914;2022-08-19T11:16:51;9.85;;;7.85;;
63203;SDS011;49297;43.210;27.914;2022-08-19T11:19:21;10.52;;;8.15;;
63203;SDS011;49297;43.210;27.914;2022-08-19T11:21:49;7.65;;;7.03;;
63203;SDS011;49297;43.210;27.914;2022-08-19T11:24:22;11.77;;;7.30;;
63203;SDS011;49297;43.210;27.914;2022-08-19T11:26:50;13.48;;;10.02;;
63203;SDS011;49297;43.210;27.914;2022-08-19T11:29:19;9.10;;;8.43;;
63203;SDS011;49297;43.210;27.914;2022-08-19T11:31:46;11.30;;;9.20;;
63203;SDS011;49297;43.210;27.914;2022-08-19T11:34:18;9.52;;;8.57;;
63203;SDS011;49297;43.210;27.914;2022-08-19T11:36:46;10.85;;;9.93;;
63203;SDS011;49297;43.210;27.914;2022-08-19T11:39:14;10.25;;;9.20;;
63203;SDS011;49297;43.210;27.914;2022-08-19T11:41:42;10.23;;;7.45;;
63203;SDS011;49297;43.210;27.914;2022-08-19T11:44:08;10.75;;;8.52;;
63203;SDS011;49297;43.210;27.914;2022-08-19T11:46:36;9.43;;;8.52;;
63203;SDS011;49297;43.210;27.914;2022-08-19T11:49:03;10.68;;;9.60;;
63203;SDS011;49297;43.210;27.914;2022-08-19T11:51:31;10.63;;;9.63;;
63203;SDS011;49297;43.210;27.914;2022-08-19T11:53:59;11.18;;;10.05;;
63203;SDS011;49297;43.210;27.914;2022-08-19T11:56:26;9.77;;;8.80;;
63203;SDS011;49297;43.210;27.914;2022-08-19T11:58:53;16.40;;;9.25;;
63203;SDS011;49297;43.210;27.914;2022-08-19T12:01:20;9.20;;;8.35;;
63203;SDS011;49297;43.210;27.914;2022-08-19T12:03:48;9.98;;;8.18;;
63203;SDS011;49297;43.210;27.914;2022-08-19T12:06:19;8.60;;;7.78;;
63203;SDS011;49297;43.210;27.914;2022-08-19T12:08:50;10.73;;;9.05;;
63203;SDS011;49297;43.210;27.914;2022-08-19T12:11:17;10.75;;;9.75;;
63203;SDS011;49297;43.210;27.914;2022-08-19T12:13:43;10.10;;;9.10;;
63203;SDS011;49297;43.210;27.914;2022-08-19T12:16:12;9.07;;;8.27;;
63203;SDS011;49297;43.210;27.914;2022-08-19T12:18:49;8.98;;;8.30;;
63203;SDS011;49297;43.210;27.914;2022-08-19T12:21:17;12.68;;;8.63;;
63203;SDS011;49297;43.210;27.914;2022-08-19T12:23:47;10.35;;;8.75;;
63203;SDS011;49297;43.210;27.914;2022-08-19T12:26:15;9.85;;;9.05;;
63203;SDS011;49297;43.210;27.914;2022-08-19T12:28:42;12.68;;;7.95;;
63203;SDS011;49297;43.210;27.914;2022-08-19T12:31:08;8.70;;;8.00;;
63203;SDS011;49297;43.210;27.914;2022-08-19T12:33:37;9.50;;;7.60;;
63203;SDS011;49297;43.210;27.914;2022-08-19T12:36:04;9.20;;;8.27;;
63203;SDS011;49297;43.210;27.914;2022-08-19T12:38:34;8.25;;;7.45;;
63203;SDS011;49297;43.210;27.914;2022-08-19T12:41:00;9.88;;;8.93;;
63203;SDS011;49297;43.210;27.914;2022-08-19T12:43:30;12.30;;;9.10;;
63203;SDS011;49297;43.210;27.914;2022-08-19T12:45:59;9.85;;;8.45;;
63203;SDS011;49297;43.210;27.914;2022-08-19T12:48:24;9.23;;;8.23;;
63203;SDS011;49297;43.210;27.914;2022-08-19T12:50:50;9.65;;;8.75;;
63203;SDS011;49297;43.210;27.914;2022-08-19T12:53:16;12.95;;;9.70;;
63203;SDS011;49297;43.210;27.914;2022-08-19T12:55:42;9.95;;;9.15;;
63203;SDS011;49297;43.210;27.914;2022-08-19T12:58:08;15.77;;;8.35;;
63203;SDS011;49297;43.210;27.914;2022-08-19T13:00:35;7.90;;;7.10;;
63203;SDS011;49297;43.210;27.914;2022-08-19T13:03:01;9.98;;;8.18;;
63203;SDS011;49297;43.210;27.914;2022-08-19T13:05:28;10.35;;;8.18;;
63203;SDS011;49297;43.210;27.914;2022-08-19T13:42:50;13.50;;;9.23;;
63203;SDS011;49297;43.210;27.914;2022-08-19T13:45:19;9.73;;;8.88;;
63203;SDS011;49297;43.210;27.914;2022-08-19T13:47:48;9.48;;;8.68;;
63203;SDS011;49297;43.210;27.914;2022-08-19T13:50:18;9.68;;;8.68;;
63203;SDS011;49297;43.210;27.914;2022-08-19T13:53:05;14.05;;;9.43;;
63203;SDS011;49297;43.210;27.914;2022-08-19T13:55:30;10.05;;;9.05;;
63203;SDS011;49297;43.210;27.914;2022-08-19T13:57:57;10.63;;;9.65;;
63203;SDS011;49297;43.210;27.914;2022-08-19T14:00:26;10.90;;;9.65;;
63203;SDS011;49297;43.210;27.914;2022-08-19T14:02:55;12.25;;;9.30;;
63203;SDS011;49297;43.210;27.914;2022-08-19T14:05:23;10.05;;;9.07;;
63203;SDS011;49297;43.210;27.914;2022-08-19T14:07:50;9.90;;;8.75;;
63203;SDS011;49297;43.210;27.914;2022-08-19T14:10:16;9.35;;;8.52;;
63203;SDS011;49297;43.210;27.914;2022-08-19T14:12:44;14.80;;;9.05;;
63203;SDS011;49297;43.210;27.914;2022-08-19T14:15:10;20.70;;;7.93;;
63203;SDS011;49297;43.210;27.914;2022-08-19T14:17:38;8.50;;;7.70;;
63203;SDS011;49297;43.210;27.914;2022-08-19T14:20:05;10.48;;;7.57;;
63203;SDS011;49297;43.210;27.914;2022-08-19T14:22:35;9.90;;;8.65;;
63203;SDS011;49297;43.210;27.914;2022-08-19T14:25:03;12.73;;;8.52;;
63203;SDS011;49297;43.210;27.914;2022-08-19T14:27:32;9.82;;;8.77;;
63203;SDS011;49297;43.210;27.914;2022-08-19T14:30:03;14.05;;;8.63;;
63203;SDS011;49297;43.210;27.914;2022-08-19T14:32:31;11.93;;;9.77;;
63203;SDS011;49297;43.210;27.914;2022-08-19T14:34:56;9.10;;;7.80;;
63203;SDS011;49297;43.210;27.914;2022-08-19T14:37:23;10.27;;;8.20;;
63203;SDS011;49297;43.210;27.914;2022-08-19T14:39:51;9.30;;;8.45;;
63203;SDS011;49297;43.210;27.914;2022-08-19T14:42:17;9.82;;;8.88;;
63203;SDS011;49297;43.210;27.914;2022-08-19T14:44:42;19.20;;;9.20;;
63203;SDS011;49297;43.210;27.914;2022-08-19T14:47:09;10.00;;;8.55;;
63203;SDS011;49297;43.210;27.914;2022-08-19T14:49:35;7.72;;;6.60;;
63203;SDS011;49297;43.210;27.914;2022-08-19T14:52:02;8.35;;;7.50;;
63203;SDS011;49297;43.210;27.914;2022-08-19T14:54:29;10.38;;;9.50;;
63203;SDS011;49297;43.210;27.914;2022-08-19T14:56:55;11.20;;;10.23;;
63203;SDS011;49297;43.210;27.914;2022-08-19T14:59:21;12.93;;;9.77;;
63203;SDS011;49297;43.210;27.914;2022-08-19T15:01:46;12.73;;;8.88;;
63203;SDS011;49297;43.210;27.914;2022-08-19T15:04:12;8.75;;;7.90;;
63203;SDS011;49297;43.210;27.914;2022-08-19T15:06:38;9.80;;;8.80;;
63203;SDS011;49297;43.210;27.914;2022-08-19T15:09:05;8.15;;;7.35;;
63203;SDS011;49297;43.210;27.914;2022-08-19T15:11:32;7.82;;;7.10;;
63203;SDS011;49297;43.210;27.914;2022-08-19T15:13:59;8.48;;;7.43;;
63203;SDS011;49297;43.210;27.914;2022-08-19T15:16:27;11.35;;;8.25;;
63203;SDS011;49297;43.210;27.914;2022-08-19T15:18:54;13.60;;;8.00;;
63203;SDS011;49297;43.210;27.914;2022-08-19T15:21:23;12.13;;;7.47;;
63203;SDS011;49297;43.210;27.914;2022-08-19T15:23:49;8.73;;;7.53;;
63203;SDS011;49297;43.210;27.914;2022-08-19T15:26:17;10.52;;;8.30;;